Time;durP1;ratioP1;P1;durP2;ratioP2;P2;SDS_P1;SDS_P2;PMS_P1;PMS_P2;Temp;Humidity;BMP_temperature;BMP_pressure;BME280_temperature;BME280_humidity;BME280_pressure;Samples;Min_cycle;Max_cycle;Signal;HPM_P1;HPM_P2
2023/11/05 00:04:47;;;;;;;0.30;0.20;;;;;;;9.97;100.00;94838.63;15278605;19;20025;-52
2023/11/05 00:10:15;;;;;;;1.40;0.30;;;;;;;10.03;100.00;94836.81;15276057;19;20035;-53
2023/11/05 00:15:39;;;;;;;0.40;0.30;;;;;;;10.03;100.00;94828.75;15277895;19;20016;-51
2023/11/05 00:21:04;;;;;;;0.30;0.30;;;;;;;10.12;100.00;94837.19;15280633;19;20024;-50
2023/11/05 00:26:32;;;;;;;0.20;0.20;;;;;;;10.06;100.00;94833.63;15276784;19;20760;-54
2023/11/05 00:31:57;;;;;;;0.55;0.40;;;;;;;10.13;100.00;94846.91;15272835;19;20014;-51
2023/11/05 00:37:21;;;;;;;0.40;0.20;;;;;;;10.18;100.00;94842.41;15020328;19;5001327;-53
2023/11/05 00:42:49;;;;;;;0.60;0.20;;;;;;;10.33;100.00;94832.91;15275907;19;20506;-52
2023/11/05 00:48:14;;;;;;;0.20;0.20;;;;;;;10.34;100.00;94842.63;15279294;19;20023;-47
2023/11/05 00:53:39;;;;;;;0.22;0.20;;;;;;;10.42;100.00;94842.22;15274645;19;20026;-53
2023/11/05 00:59:06;;;;;;;0.35;0.20;;;;;;;10.44;100.00;94834.72;15276192;19;20047;-50
2023/11/05 01:04:31;;;;;;;0.38;0.30;;;;;;;10.40;100.00;94825.53;15270434;19;20093;-52
2023/11/05 01:09:55;;;;;;;0.57;0.20;;;;;;;10.43;100.00;94826.91;15275633;19;20565;-53
2023/11/05 01:15:23;;;;;;;0.45;0.30;;;;;;;10.37;100.00;94815.22;15273144;19;20042;-49
2023/11/05 01:20:47;;;;;;;0.30;0.30;;;;;;;10.27;100.00;94810.53;15275440;19;20006;-49
2023/11/05 01:26:12;;;;;;;0.40;0.20;;;;;;;10.16;100.00;94803.38;15271637;19;20015;-50
2023/11/05 01:31:40;;;;;;;0.85;0.28;;;;;;;10.03;100.00;94799.97;15273663;19;20027;-54
2023/11/05 01:37:05;;;;;;;1.77;0.38;;;;;;;9.99;100.00;94817.69;15267649;19;20039;-51
2023/11/05 01:42:30;;;;;;;0.63;0.35;;;;;;;9.87;100.00;94817.75;15274124;19;20031;-48
2023/11/05 01:47:58;;;;;;;0.43;0.28;;;;;;;9.81;100.00;94817.94;15276053;19;20010;-50
2023/11/05 01:53:23;;;;;;;1.75;0.20;;;;;;;9.79;100.00;94812.81;15270182;19;20011;-53
2023/11/05 01:58:50;;;;;;;0.25;0.20;;;;;;;9.76;100.00;94805.22;15270769;19;20364;-52
2023/11/05 02:04:17;;;;;;;0.65;0.30;;;;;;;9.78;100.00;94813.88;15272729;19;20035;-48
2023/11/05 02:09:49;;;;;;;1.35;0.30;;;;;;;9.82;100.00;94798.84;15267623;19;20010;-49
2023/11/05 02:15:14;;;;;;;1.00;0.20;;;;;;;9.79;100.00;94790.47;15268689;19;20014;-49
2023/11/05 02:20:41;;;;;;;0.20;0.20;;;;;;;9.78;100.00;94770.03;15017393;19;5001731;-48
2023/11/05 02:26:09;;;;;;;0.52;0.17;;;;;;;9.66;100.00;94754.03;15268410;19;20018;-49
2023/11/05 02:31:33;;;;;;;0.88;0.30;;;;;;;9.62;100.00;94755.56;15266070;19;20042;-52
2023/11/05 02:36:58;;;;;;;0.38;0.20;;;;;;;9.58;100.00;94741.00;15265901;19;20349;-51
2023/11/05 02:42:25;;;;;;;0.30;0.20;;;;;;;9.59;100.00;94751.50;15263074;19;20018;-49
2023/11/05 02:47:50;;;;;;;0.20;0.20;;;;;;;9.57;100.00;94748.25;15271085;19;20077;-49
2023/11/05 02:53:16;;;;;;;0.30;0.20;;;;;;;9.49;100.00;94738.72;15269477;19;20106;-49
2023/11/05 02:58:44;;;;;;;0.98;0.30;;;;;;;9.43;100.00;94739.72;15269538;19;20007;-49
2023/11/05 03:04:08;;;;;;;0.63;0.22;;;;;;;9.36;100.00;94747.09;15267483;19;20026;-49
2023/11/05 03:09:33;;;;;;;0.30;0.20;;;;;;;9.33;100.00;94750.28;15265095;19;20023;-49
2023/11/05 03:15:00;;;;;;;0.20;0.20;;;;;;;9.36;100.00;94755.16;15260881;19;20025;-52
2023/11/05 03:20:25;;;;;;;0.65;0.20;;;;;;;9.21;100.00;94761.94;15267815;19;20017;-50
2023/11/05 03:25:50;;;;;;;0.45;0.30;;;;;;;9.06;100.00;94742.88;15269867;19;20014;-48
2023/11/05 03:31:19;;;;;;;0.30;0.20;;;;;;;8.97;100.00;94747.81;15283067;19;20089;-49
2023/11/05 03:36:43;;;;;;;1.55;0.30;;;;;;;8.92;100.00;94735.13;15276690;19;20014;-52
2023/11/05 03:42:08;;;;;;;0.50;0.20;;;;;;;8.90;100.00;94736.44;15283247;19;20783;-51
2023/11/05 03:47:35;;;;;;;0.20;0.20;;;;;;;8.81;100.00;94744.03;15277986;19;20055;-49
2023/11/05 03:53:00;;;;;;;0.63;0.30;;;;;;;8.75;100.00;94734.28;15279701;19;20377;-51
2023/11/05 03:58:24;;;;;;;0.38;0.30;;;;;;;8.72;100.00;94740.13;15282619;19;20015;-49
2023/11/05 04:04:00;;;;;;;0.63;0.17;;;;;;;8.69;100.00;94732.56;12187520;19;10022477;-49
2023/11/05 04:09:25;;;;;;;0.38;0.20;;;;;;;8.63;100.00;94729.78;14413161;19;10000633;-51
2023/11/05 04:14:51;;;;;;;1.40;0.20;;;;;;;8.66;100.00;94738.41;15277390;19;20485;-50
2023/11/05 04:20:18;;;;;;;0.10;0.10;;;;;;;8.64;100.00;94735.97;15274819;19;20070;-48
2023/11/05 04:25:43;;;;;;;0.20;0.10;;;;;;;8.59;100.00;94742.06;15278156;19;20014;-49
2023/11/05 04:31:07;;;;;;;0.47;0.20;;;;;;;8.55;100.00;94724.00;15281246;19;20117;-48
2023/11/05 04:36:40;;;;;;;0.38;0.25;;;;;;;8.54;100.00;94715.13;15274585;19;20086;-49
2023/11/05 04:42:06;;;;;;;0.40;0.20;;;;;;;8.60;100.00;94719.53;15274388;19;20512;-49
2023/11/05 04:47:31;;;;;;;0.20;0.20;;;;;;;8.63;100.00;94708.34;15277866;19;20014;-49
2023/11/05 04:53:00;;;;;;;0.85;0.30;;;;;;;8.71;100.00;94703.63;15273319;19;20015;-51
2023/11/05 04:58:25;;;;;;;0.68;0.20;;;;;;;8.73;100.00;94696.94;15278979;19;20015;-51
2023/11/05 05:03:49;;;;;;;0.20;0.20;;;;;;;8.77;100.00;94689.22;15277521;19;20018;-52
2023/11/05 05:09:17;;;;;;;1.73;0.40;;;;;;;8.82;100.00;94683.97;15276347;19;20015;-51
2023/11/05 05:14:41;;;;;;;0.73;0.20;;;;;;;8.89;100.00;94687.28;15274075;19;20543;-50
2023/11/05 05:20:09;;;;;;;0.70;0.30;;;;;;;8.90;100.00;94678.19;15277045;19;20460;-51
2023/11/05 05:25:36;;;;;;;0.55;0.20;;;;;;;8.95;100.00;94674.75;15269920;19;20040;-49
2023/11/05 05:31:02;;;;;;;0.80;0.30;;;;;;;8.93;100.00;94669.66;15274666;19;20390;-53
2023/11/05 05:36:27;;;;;;;0.93;0.30;;;;;;;8.93;100.00;94675.03;15274023;19;20084;-53
2023/11/05 05:41:55;;;;;;;1.58;0.47;;;;;;;8.92;100.00;94657.28;15274746;19;20535;-55
2023/11/05 05:47:19;;;;;;;0.50;0.25;;;;;;;8.91;100.00;94666.38;15266456;19;20408;-51
2023/11/05 05:52:44;;;;;;;0.68;0.30;;;;;;;8.89;100.00;94663.13;15273362;19;20014;-55
2023/11/05 05:58:12;;;;;;;0.75;0.25;;;;;;;8.90;100.00;94667.44;15266316;19;20354;-53
2023/11/05 06:03:37;;;;;;;1.27;0.30;;;;;;;8.93;100.00;94664.28;15271265;19;20023;-51
2023/11/05 06:09:02;;;;;;;1.90;0.40;;;;;;;9.00;100.00;94649.88;15286549;19;20010;-55
2023/11/05 06:14:30;;;;;;;2.03;0.30;;;;;;;9.04;100.00;94651.03;15307311;19;20034;-52
2023/11/05 06:20:05;;;;;;;0.80;0.38;;;;;;;9.07;100.00;94645.16;15244516;19;20038;-56
2023/11/05 06:25:30;;;;;;;1.80;0.30;;;;;;;9.10;100.00;94636.63;15264549;19;20086;-54
2023/11/05 06:30:57;;;;;;;0.30;0.30;;;;;;;9.13;100.00;94640.69;15262961;19;20024;-57
2023/11/05 06:36:24;;;;;;;0.60;0.40;;;;;;;9.17;100.00;94636.47;15266770;19;20021;-55
2023/11/05 06:41:49;;;;;;;0.35;0.30;;;;;;;9.21;100.00;94633.03;15266642;19;20014;-50
2023/11/05 06:47:16;;;;;;;1.20;0.32;;;;;;;9.29;100.00;94629.09;15263360;19;20006;-54
2023/11/05 06:52:43;;;;;;;0.80;0.40;;;;;;;9.39;100.00;94617.69;15264553;19;20479;-49
2023/11/05 06:58:09;;;;;;;1.15;0.30;;;;;;;9.45;100.00;94621.25;15270130;19;20039;-55
2023/11/05 07:03:36;;;;;;;0.47;0.30;;;;;;;9.52;100.00;94628.09;15261043;19;20029;-53
2023/11/05 07:09:00;;;;;;;0.98;0.45;;;;;;;9.63;100.00;94622.84;15265928;19;20030;-50
2023/11/05 07:14:25;;;;;;;0.82;0.40;;;;;;;9.74;100.00;94626.47;15265825;19;20050;-54
2023/11/05 07:19:53;;;;;;;1.45;0.60;;;;;;;9.84;100.00;94638.16;15268686;19;20640;-55
2023/11/05 07:25:18;;;;;;;1.55;0.50;;;;;;;9.91;100.00;94637.97;15264051;19;20020;-55
2023/11/05 07:30:42;;;;;;;0.45;0.38;;;;;;;9.98;100.00;94645.84;15263714;19;20010;-53
2023/11/05 07:36:13;;;;;;;1.00;0.40;;;;;;;10.07;100.00;94643.53;15263889;19;20017;-52
2023/11/05 07:41:38;;;;;;;1.40;0.43;;;;;;;10.14;100.00;94633.38;15267186;19;20047;-54
2023/11/05 07:47:04;;;;;;;2.78;0.77;;;;;;;10.21;100.00;94631.34;15260953;19;20039;-51
2023/11/05 07:52:31;;;;;;;0.57;0.40;;;;;;;10.28;100.00;94633.81;15264567;19;20021;-53
2023/11/05 07:57:56;;;;;;;1.02;0.50;;;;;;;10.38;100.00;94638.50;15263009;19;20019;-51
2023/11/05 08:03:22;;;;;;;1.33;0.60;;;;;;;10.51;100.00;94626.53;15259369;19;20094;-53
2023/11/05 08:08:51;;;;;;;2.05;0.50;;;;;;;10.60;100.00;94639.25;15264070;19;20025;-51
2023/11/05 08:14:16;;;;;;;2.15;0.68;;;;;;;10.72;100.00;94639.13;15271983;19;20402;-50
2023/11/05 08:19:41;;;;;;;1.30;0.50;;;;;;;10.78;100.00;94642.66;15279024;19;20020;-51
2023/11/05 08:25:09;;;;;;;0.55;0.35;;;;;;;10.76;100.00;94642.09;15276480;19;20047;-50
2023/11/05 08:30:34;;;;;;;1.77;0.52;;;;;;;10.78;100.00;94648.84;15275166;19;20086;-53
2023/11/05 08:35:58;;;;;;;2.17;0.40;;;;;;;10.85;100.00;94648.63;15269563;19;20240;-51
2023/11/05 08:41:26;;;;;;;2.75;0.52;;;;;;;10.96;100.00;94644.16;15274250;19;20090;-51
2023/11/05 08:46:51;;;;;;;2.05;0.60;;;;;;;11.06;100.00;94651.50;15275296;19;20023;-53
2023/11/05 08:52:16;;;;;;;1.42;0.57;;;;;;;11.11;100.00;94635.38;15273255;19;20082;-52
2023/11/05 08:57:44;;;;;;;1.85;0.60;;;;;;;11.21;100.00;94640.03;15270218;19;20027;-55
2023/11/05 09:03:11;;;;;;;1.75;0.85;;;;;;;11.28;100.00;94646.00;15269301;19;20022;-52
2023/11/05 09:08:38;;;;;;;1.08;0.50;;;;;;;11.32;100.00;94641.75;15271257;19;20055;-52
2023/11/05 09:14:13;;;;;;;1.83;0.43;;;;;;;11.35;100.00;94643.09;15273843;19;20020;-53
2023/11/05 09:19:38;;;;;;;0.77;0.47;;;;;;;11.41;100.00;94647.44;15273344;19;20011;-52
2023/11/05 09:25:04;;;;;;;1.17;0.50;;;;;;;11.48;100.00;94661.50;15273143;19;20014;-53
2023/11/05 09:30:32;;;;;;;1.77;0.50;;;;;;;11.62;100.00;94667.25;15273724;19;20022;-50
2023/11/05 09:35:57;;;;;;;1.70;0.45;;;;;;;11.68;100.00;94654.59;15273071;19;20022;-53
2023/11/05 09:41:24;;;;;;;1.30;0.50;;;;;;;11.78;100.00;94667.34;15269161;19;20022;-53
2023/11/05 09:46:55;;;;;;;1.05;0.40;;;;;;;11.88;100.00;94676.28;15275692;19;20019;-53
2023/11/05 09:52:21;;;;;;;0.88;0.40;;;;;;;11.99;100.00;94674.47;15275747;19;20105;-50
2023/11/05 09:57:47;;;;;;;1.63;0.70;;;;;;;12.10;100.00;94685.31;15271803;19;20090;-50
2023/11/05 10:03:14;;;;;;;4.55;0.70;;;;;;;12.15;100.00;94679.94;15271128;19;20376;-56
2023/11/05 10:08:43;;;;;;;1.17;0.60;;;;;;;12.22;100.00;94707.50;15272977;19;20014;-50
2023/11/05 10:14:14;;;;;;;1.13;0.55;;;;;;;12.24;100.00;94697.25;15259026;19;20010;-51
2023/11/05 10:19:42;;;;;;;1.52;0.38;;;;;;;12.25;100.00;94717.75;15271012;19;20513;-51
2023/11/05 10:25:08;;;;;;;1.02;0.40;;;;;;;12.22;100.00;94714.78;15266675;19;20028;-50
2023/11/05 10:30:33;;;;;;;2.03;0.40;;;;;;;12.15;100.00;94717.72;15269275;19;20378;-53
2023/11/05 10:36:01;;;;;;;2.28;0.40;;;;;;;12.09;100.00;94726.84;15262562;19;20098;-51
2023/11/05 10:41:26;;;;;;;0.60;0.30;;;;;;;12.00;100.00;94742.72;15270077;19;20051;-50
2023/11/05 10:46:55;;;;;;;1.98;0.30;;;;;;;11.96;100.00;94753.19;15265243;19;20081;-51
2023/11/05 10:52:22;;;;;;;0.30;0.20;;;;;;;11.97;100.00;94741.31;15272468;19;20337;-51
2023/11/05 10:57:51;;;;;;;0.90;0.38;;;;;;;11.98;100.00;94750.28;15270608;19;20020;-53
2023/11/05 11:03:28;;;;;;;0.45;0.35;;;;;;;12.01;100.00;94755.97;15261281;19;20017;-52
2023/11/05 11:09:17;;;;;;;0.35;0.25;;;;;;;11.95;100.00;94751.56;15267673;19;20237;-52
2023/11/05 11:14:42;;;;;;;0.85;0.30;;;;;;;11.97;100.00;94754.81;15259513;19;20435;-54
2023/11/05 11:20:09;;;;;;;1.45;0.20;;;;;;;12.01;100.00;94757.81;15259947;19;20026;-55
2023/11/05 11:25:38;;;;;;;0.73;0.22;;;;;;;12.05;100.00;94758.13;15262418;19;20457;-50
2023/11/05 11:31:04;;;;;;;0.50;0.30;;;;;;;11.99;100.00;94763.50;15267602;19;20010;-52
2023/11/05 11:36:29;;;;;;;0.88;0.50;;;;;;;11.96;100.00;94763.97;15260789;19;20024;-50
2023/11/05 11:41:57;;;;;;;0.73;0.30;;;;;;;11.99;100.00;94768.09;15262417;19;20016;-54
2023/11/05 11:47:24;;;;;;;0.50;0.30;;;;;;;11.97;100.00;94787.19;15266441;19;20011;-50
2023/11/05 11:52:57;;;;;;;0.28;0.20;;;;;;;12.05;100.00;94768.94;15270121;19;20074;-49
2023/11/05 11:58:24;;;;;;;0.40;0.10;;;;;;;12.18;100.00;94784.63;15271469;19;20011;-50
2023/11/05 12:03:50;;;;;;;0.43;0.10;;;;;;;12.38;100.00;94785.81;15270702;19;20014;-50
2023/11/05 12:09:23;;;;;;;0.17;0.10;;;;;;;12.53;100.00;94791.28;15271014;19;20262;-52
2023/11/05 12:14:52;;;;;;;1.75;0.30;;;;;;;12.52;100.00;94791.56;15274729;19;20482;-50
2023/11/05 12:20:18;;;;;;;0.35;0.13;;;;;;;12.45;100.00;94802.59;15277332;19;20033;-50
2023/11/05 12:25:42;;;;;;;0.22;0.20;;;;;;;12.38;100.00;94818.22;14754129;19;9999902;-51
2023/11/05 12:31:10;;;;;;;0.35;0.20;;;;;;;12.24;100.00;94823.25;15276001;19;20752;-52
2023/11/05 12:36:34;;;;;;;0.10;0.10;;;;;;;12.24;100.00;94839.44;15273727;19;20025;-51
2023/11/05 12:41:59;;;;;;;0.50;0.10;;;;;;;12.28;100.00;94837.84;15274704;19;20031;-54
2023/11/05 12:47:28;;;;;;;0.60;0.10;;;;;;;12.28;100.00;94865.66;15275745;19;20419;-59
2023/11/05 12:52:52;;;;;;;0.00;0.00;;;;;;;12.27;100.00;94865.91;15278254;19;20018;-52
2023/11/05 12:58:17;;;;;;;0.85;0.10;;;;;;;12.27;100.00;94868.59;15266575;19;20350;-53
2023/11/05 13:03:44;;;;;;;0.30;0.00;;;;;;;12.31;100.00;94877.81;15269165;19;20029;-53
2023/11/05 13:09:09;;;;;;;0.88;0.10;;;;;;;12.27;100.00;94872.13;15273486;19;20074;-52
2023/11/05 13:14:42;;;;;;;0.20;0.10;;;;;;;12.26;100.00;94892.09;15271048;19;20026;-51
2023/11/05 13:20:11;;;;;;;;;;;;;;;12.25;100.00;94905.81;15272798;19;20040;-54
2023/11/05 13:25:39;;;;;;;0.47;0.10;;;;;;;12.24;100.00;94914.97;15268358;19;20689;-53
2023/11/05 13:31:05;;;;;;;0.15;0.10;;;;;;;12.24;100.00;94917.69;15272494;19;20520;-52
2023/11/05 13:36:32;;;;;;;0.55;0.10;;;;;;;12.25;100.00;94922.00;15267922;19;20109;-54
2023/11/05 13:41:57;;;;;;;0.10;0.10;;;;;;;12.24;100.00;94934.69;15270396;19;20018;-55
2023/11/05 13:47:23;;;;;;;0.20;0.20;;;;;;;12.28;100.00;94943.09;15268130;19;20017;-52
2023/11/05 13:52:51;;;;;;;0.20;0.10;;;;;;;12.32;100.00;94952.31;15268705;19;20015;-56
2023/11/05 13:58:16;;;;;;;0.00;0.00;;;;;;;12.36;100.00;94958.00;15263549;19;20035;-53
2023/11/05 14:03:42;;;;;;;0.35;0.10;;;;;;;12.37;100.00;94965.81;15267091;19;20016;-52
2023/11/05 14:09:10;;;;;;;0.95;0.15;;;;;;;12.33;100.00;94972.81;15269324;19;20018;-56
2023/11/05 14:14:46;;;;;;;0.52;0.10;;;;;;;12.24;100.00;94977.88;15267892;19;20017;-51
2023/11/05 14:20:12;;;;;;;0.30;0.13;;;;;;;12.22;100.00;94998.91;15268310;19;20018;-51
2023/11/05 14:25:41;;;;;;;0.13;0.10;;;;;;;12.24;100.00;95001.31;15266423;19;20370;-53
2023/11/05 14:31:08;;;;;;;0.20;0.10;;;;;;;12.19;100.00;95015.59;15263475;19;20039;-55
2023/11/05 14:36:32;;;;;;;0.10;0.10;;;;;;;12.09;100.00;95013.63;15265347;19;20017;-53
2023/11/05 14:42:01;;;;;;;0.08;0.08;;;;;;;11.98;100.00;95026.19;15266850;19;20031;-50
2023/11/05 14:47:26;;;;;;;0.10;0.10;;;;;;;11.90;100.00;95050.91;15265647;19;20563;-54
2023/11/05 14:52:51;;;;;;;0.30;0.10;;;;;;;11.84;100.00;95059.97;15265953;19;20017;-49
2023/11/05 14:58:19;;;;;;;0.05;0.05;;;;;;;11.77;100.00;95059.38;15266914;19;20007;-53
2023/11/05 15:03:44;;;;;;;0.10;0.10;;;;;;;11.72;100.00;95085.19;15259112;19;20020;-49
2023/11/05 15:09:10;;;;;;;0.10;0.10;;;;;;;11.63;100.00;95104.78;15267353;19;20018;-49
2023/11/05 15:14:45;;;;;;;0.10;0.10;;;;;;;11.41;100.00;95114.47;15264326;19;20014;-52
2023/11/05 15:20:12;;;;;;;0.10;0.10;;;;;;;11.24;100.00;95127.13;15262558;19;20018;-52
2023/11/05 15:25:37;;;;;;;0.10;0.10;;;;;;;11.09;100.00;95139.31;15277939;19;20014;-53
2023/11/05 15:31:04;;;;;;;0.28;0.17;;;;;;;10.94;100.00;95147.16;15280107;19;20010;-49
2023/11/05 15:36:30;;;;;;;0.15;0.15;;;;;;;10.84;100.00;95163.16;15268280;19;20481;-56
2023/11/05 15:41:56;;;;;;;0.13;0.13;;;;;;;10.74;100.00;95175.38;15279175;19;20078;-52
2023/11/05 15:47:23;;;;;;;0.20;0.20;;;;;;;10.70;100.00;95189.56;15272094;19;20282;-52
2023/11/05 15:52:48;;;;;;;0.47;0.30;;;;;;;10.63;100.00;95201.28;15279366;19;20028;-53
2023/11/05 15:58:12;;;;;;;0.20;0.20;;;;;;;10.59;100.00;95207.38;15275864;19;20090;-52
2023/11/05 16:03:41;;;;;;;0.20;0.20;;;;;;;10.55;100.00;95238.53;15271108;19;20077;-51
2023/11/05 16:09:07;;;;;;;0.30;0.30;;;;;;;10.45;100.00;95239.97;15272027;19;20086;-49
2023/11/05 16:14:39;;;;;;;0.63;0.30;;;;;;;10.38;100.00;95260.00;15272420;19;20054;-54
2023/11/05 16:20:09;;;;;;;0.35;0.32;;;;;;;10.28;100.00;95276.72;15271597;19;20021;-49
2023/11/05 16:25:34;;;;;;;0.23;0.23;;;;;;;10.21;100.00;95295.69;15273820;19;20382;-48
2023/11/05 16:31:01;;;;;;;0.20;0.20;;;;;;;10.26;100.00;95297.66;15276214;19;20778;-48
2023/11/05 16:36:28;;;;;;;0.28;0.20;;;;;;;10.24;100.00;95314.03;15275893;19;20018;-48
2023/11/05 16:41:54;;;;;;;0.20;0.20;;;;;;;10.24;100.00;95322.09;15270027;19;20018;-51
2023/11/05 16:47:18;;;;;;;0.32;0.20;;;;;;;10.28;100.00;95339.41;15274030;19;20023;-47
2023/11/05 16:52:47;;;;;;;0.40;0.28;;;;;;;10.33;100.00;95341.38;15275492;19;20409;-50
2023/11/05 16:58:13;;;;;;;0.43;0.20;;;;;;;10.30;100.00;95353.44;15272436;19;20376;-49
2023/11/05 17:03:39;;;;;;;0.20;0.20;;;;;;;10.22;100.00;95363.75;15272326;19;20043;-50
2023/11/05 17:09:07;;;;;;;0.25;0.25;;;;;;;10.10;100.00;95394.16;15276153;19;20039;-50
2023/11/05 17:14:32;;;;;;;0.30;0.20;;;;;;;10.04;100.00;95408.53;15262079;19;20021;-48
2023/11/05 17:19:56;;;;;;;0.28;0.20;;;;;;;9.93;100.00;95428.97;15271354;19;20028;-47
2023/11/05 17:25:23;;;;;;;0.28;0.10;;;;;;;9.86;100.00;95450.56;15272630;19;20377;-47
2023/11/05 17:30:49;;;;;;;0.28;0.22;;;;;;;9.84;100.00;95454.56;15273089;19;20055;-51
2023/11/05 17:36:14;;;;;;;0.30;0.20;;;;;;;9.89;100.00;95468.09;15270943;19;20531;-47
2023/11/05 17:41:42;;;;;;;0.70;0.30;;;;;;;9.94;100.00;95480.88;15271428;19;20078;-50
2023/11/05 17:47:08;;;;;;;0.90;0.30;;;;;;;9.96;100.00;95487.66;15263133;19;20018;-46
2023/11/05 17:52:33;;;;;;;3.10;0.30;;;;;;;10.03;100.00;95492.94;15267941;19;20018;-48
2023/11/05 17:58:01;;;;;;;0.20;0.20;;;;;;;10.07;100.00;95521.00;15272983;19;20022;-46
2023/11/05 18:03:27;;;;;;;0.80;0.30;;;;;;;10.16;100.00;95522.34;15264832;19;20721;-50
2023/11/05 18:08:52;;;;;;;0.38;0.20;;;;;;;10.32;100.00;95538.84;15271337;19;20101;-50
2023/11/05 18:14:27;;;;;;;0.43;0.10;;;;;;;10.40;100.00;95541.25;15270960;19;20018;-49
2023/11/05 18:19:52;;;;;;;0.28;0.25;;;;;;;10.44;100.00;95558.56;15268197;19;20014;-49
2023/11/05 18:25:19;;;;;;;0.47;0.28;;;;;;;10.50;100.00;95566.78;15272318;19;20032;-46
2023/11/05 18:30:46;;;;;;;0.40;0.40;;;;;;;10.50;100.00;95572.16;15271619;19;20053;-46
2023/11/05 18:36:11;;;;;;;0.20;0.20;;;;;;;10.51;100.00;95595.31;15267350;19;20018;-47
2023/11/05 18:41:36;;;;;;;0.55;0.20;;;;;;;10.51;100.00;95598.81;15268770;19;20037;-48
2023/11/05 18:47:04;;;;;;;0.60;0.10;;;;;;;10.55;100.00;95613.47;15269001;19;20014;-47
2023/11/05 18:52:30;;;;;;;0.52;0.20;;;;;;;10.53;100.00;95638.97;15266777;19;20020;-52
2023/11/05 18:57:56;;;;;;;0.52;0.20;;;;;;;10.53;100.00;95641.66;15266026;19;20027;-48
2023/11/05 19:03:23;;;;;;;0.28;0.17;;;;;;;10.54;100.00;95672.91;15268045;19;20026;-52
2023/11/05 19:08:49;;;;;;;0.20;0.20;;;;;;;10.52;100.00;95681.22;15272453;19;20011;-49
2023/11/05 19:14:20;;;;;;;2.17;0.25;;;;;;;10.58;100.00;95682.16;15266101;19;20015;-50
2023/11/05 19:19:47;;;;;;;0.27;0.20;;;;;;;10.70;100.00;95701.88;15269849;19;20085;-52
2023/11/05 19:25:15;;;;;;;0.45;0.20;;;;;;;10.68;100.00;95703.16;15266328;19;20031;-48
2023/11/05 19:30:40;;;;;;;0.80;0.28;;;;;;;10.69;100.00;95727.16;15269183;19;20754;-50
2023/11/05 19:36:07;;;;;;;0.57;0.40;;;;;;;10.74;100.00;95742.63;15266542;19;20014;-47
2023/11/05 19:41:32;;;;;;;0.93;0.30;;;;;;;10.76;100.00;95770.16;15265000;19;20019;-49
2023/11/05 19:46:56;;;;;;;1.00;0.38;;;;;;;10.76;100.00;95792.50;15262592;19;20344;-50
2023/11/05 19:52:27;;;;;;;0.85;0.40;;;;;;;10.73;100.00;95801.06;15260749;19;20029;-49
2023/11/05 19:57:53;;;;;;;0.95;0.32;;;;;;;10.70;100.00;95820.34;15265286;19;20085;-48
2023/11/05 20:03:23;;;;;;;0.60;0.38;;;;;;;10.73;100.00;95836.06;15263931;19;20019;-48
2023/11/05 20:08:50;;;;;;;1.77;0.60;;;;;;;10.71;100.00;95853.47;15272122;19;20026;-52
2023/11/05 20:14:25;;;;;;;1.20;0.40;;;;;;;10.71;100.00;95881.22;15267801;19;20078;-52
2023/11/05 20:19:51;;;;;;;0.93;0.40;;;;;;;10.73;100.00;95881.00;15271599;19;20014;-50
2023/11/05 20:25:19;;;;;;;1.20;0.43;;;;;;;10.71;100.00;95923.47;15266428;19;20031;-50
2023/11/05 20:30:46;;;;;;;1.45;0.50;;;;;;;10.67;100.00;95912.34;15283307;19;20038;-49
2023/11/05 20:36:12;;;;;;;1.45;0.50;;;;;;;10.61;100.00;95945.53;15276987;19;20013;-48
2023/11/05 20:41:39;;;;;;;1.33;0.65;;;;;;;10.53;100.00;95937.72;15277645;19;20014;-54
2023/11/05 20:47:04;;;;;;;1.50;0.50;;;;;;;10.47;100.00;95948.34;15279753;19;20085;-53
2023/11/05 20:52:30;;;;;;;1.10;0.40;;;;;;;10.42;100.00;95944.69;15283629;19;20021;-52
2023/11/05 20:57:57;;;;;;;2.97;0.60;;;;;;;10.43;100.00;95971.38;15279717;19;20017;-48
2023/11/05 21:03:22;;;;;;;1.52;0.70;;;;;;;10.44;100.00;95981.09;15277836;19;20021;-53
2023/11/05 21:08:46;;;;;;;1.80;0.50;;;;;;;10.40;100.00;95987.97;15280817;19;20018;-53
2023/11/05 21:14:20;;;;;;;0.65;0.50;;;;;;;10.37;100.00;96011.75;15276426;19;20436;-49
2023/11/05 21:19:46;;;;;;;3.35;0.50;;;;;;;10.34;100.00;96029.19;15277113;19;20487;-47
2023/11/05 21:25:11;;;;;;;0.65;0.30;;;;;;;10.22;100.00;96055.97;15274565;19;20676;-50
2023/11/05 21:30:39;;;;;;;1.13;0.25;;;;;;;10.10;100.00;96042.38;15275569;19;20074;-49
2023/11/05 21:36:04;;;;;;;1.23;0.65;;;;;;;10.08;100.00;96065.97;15275094;19;20035;-49
2023/11/05 21:41:29;;;;;;;2.72;0.60;;;;;;;10.07;100.00;96075.09;15275430;19;20002;-50
2023/11/05 21:46:56;;;;;;;1.60;0.60;;;;;;;10.01;100.00;96092.09;15275332;19;20082;-50
2023/11/05 21:52:22;;;;;;;1.73;0.70;;;;;;;9.94;100.00;96102.91;15277527;19;20011;-50
2023/11/05 21:57:46;;;;;;;1.10;0.38;;;;;;;9.86;100.00;96116.59;15276638;19;20089;-50
2023/11/05 22:03:13;;;;;;;0.85;0.47;;;;;;;9.85;100.00;96136.47;15271170;19;20018;-49
2023/11/05 22:08:38;;;;;;;0.93;0.52;;;;;;;9.85;100.00;96142.66;15276683;19;20010;-51
2023/11/05 22:14:03;;;;;;;1.65;0.50;;;;;;;9.86;100.00;96160.44;15273736;19;20078;-47
2023/11/05 22:19:30;;;;;;;0.52;0.40;;;;;;;9.92;100.00;96177.59;15272475;19;20025;-52
2023/11/05 22:24:57;;;;;;;1.55;0.30;;;;;;;9.87;100.00;96183.59;15272983;19;20092;-52
2023/11/05 22:30:22;;;;;;;2.05;0.47;;;;;;;9.84;100.00;96183.22;15271976;19;20081;-53
2023/11/05 22:35:50;;;;;;;0.70;0.40;;;;;;;9.86;100.00;96198.09;15268030;19;20094;-48
2023/11/05 22:41:15;;;;;;;1.30;0.47;;;;;;;9.93;100.00;96213.38;15272786;19;20043;-54
2023/11/05 22:46:44;;;;;;;1.10;0.57;;;;;;;9.96;100.00;96223.69;15270819;19;20015;-50
2023/11/05 22:52:11;;;;;;;1.55;0.63;;;;;;;9.97;100.00;96226.19;15271494;19;20021;-51
2023/11/05 22:57:36;;;;;;;1.73;0.60;;;;;;;9.99;100.00;96234.03;15274665;19;20078;-51
2023/11/05 23:03:01;;;;;;;1.08;0.50;;;;;;;10.01;100.00;96243.53;15266761;19;20015;-50
2023/11/05 23:08:28;;;;;;;1.77;0.40;;;;;;;10.08;100.00;96256.16;15268340;19;20039;-53
2023/11/05 23:14:00;;;;;;;2.13;0.60;;;;;;;10.04;100.00;96255.78;15265938;19;20475;-52
2023/11/05 23:19:26;;;;;;;0.73;0.43;;;;;;;9.95;100.00;96267.78;15268410;19;20026;-52
2023/11/05 23:24:53;;;;;;;3.60;0.60;;;;;;;9.93;100.00;96280.63;15268752;19;20067;-49
2023/11/05 23:30:18;;;;;;;0.88;0.50;;;;;;;9.86;100.00;96280.63;15272987;19;20014;-51
2023/11/05 23:35:43;;;;;;;1.63;0.50;;;;;;;9.77;100.00;96280.03;15269249;19;20011;-49
2023/11/05 23:41:10;;;;;;;0.75;0.38;;;;;;;9.75;100.00;96287.47;15263139;19;20035;-50
2023/11/05 23:46:35;;;;;;;1.15;0.50;;;;;;;9.76;100.00;96293.69;15282010;19;20043;-53
2023/11/05 23:52:01;;;;;;;0.52;0.38;;;;;;;9.84;100.00;96307.72;15284436;19;20010;-52
2023/11/05 23:57:28;;;;;;;1.48;0.57;;;;;;;9.85;100.00;96320.13;15277300;19;20053;-51
